sensor_id;sensor_type;location;lat;lon;timestamp;temperature;humidity
16253;DHT22;8234;41.480;2.306;2023-02-13T00:05:40;6.20;99.90
16253;DHT22;8234;41.480;2.306;2023-02-13T00:15:45;7.00;99.90
16253;DHT22;8234;41.480;2.306;2023-02-13T00:25:57;7.90;99.90
16253;DHT22;8234;41.480;2.306;2023-02-13T00:36:04;8.20;99.90
16253;DHT22;8234;41.480;2.306;2023-02-13T00:46:09;8.20;99.90
16253;DHT22;8234;41.480;2.306;2023-02-13T00:56:14;7.90;99.90
16253;DHT22;8234;41.480;2.306;2023-02-13T01:06:18;7.90;99.90
16253;DHT22;8234;41.480;2.306;2023-02-13T01:16:23;8.00;99.90
16253;DHT22;8234;41.480;2.306;2023-02-13T01:26:27;7.70;99.90
16253;DHT22;8234;41.480;2.306;2023-02-13T01:36:33;7.40;99.90
16253;DHT22;8234;41.480;2.306;2023-02-13T01:46:40;7.10;99.90
16253;DHT22;8234;41.480;2.306;2023-02-13T01:56:49;6.70;99.90
16253;DHT22;8234;41.480;2.306;2023-02-13T02:06:56;6.70;99.90
16253;DHT22;8234;41.480;2.306;2023-02-13T02:17:02;5.60;99.90
16253;DHT22;8234;41.480;2.306;2023-02-13T02:38:12;5.70;99.90
16253;DHT22;8234;41.480;2.306;2023-02-13T02:48:23;5.60;99.90
16253;DHT22;8234;41.480;2.306;2023-02-13T02:58:51;5.60;99.90
16253;DHT22;8234;41.480;2.306;2023-02-13T03:09:18;5.40;99.90
16253;DHT22;8234;41.480;2.306;2023-02-13T03:19:57;5.20;99.90
16253;DHT22;8234;41.480;2.306;2023-02-13T03:30:32;5.20;99.90
16253;DHT22;8234;41.480;2.306;2023-02-13T03:40:46;5.00;99.90
16253;DHT22;8234;41.480;2.306;2023-02-13T03:51:06;5.10;99.90
16253;DHT22;8234;41.480;2.306;2023-02-13T04:01:14;5.20;99.90
16253;DHT22;8234;41.480;2.306;2023-02-13T04:11:24;5.30;99.90
16253;DHT22;8234;41.480;2.306;2023-02-13T04:21:33;5.20;99.90
16253;DHT22;8234;41.480;2.306;2023-02-13T04:31:37;5.10;99.90
16253;DHT22;8234;41.480;2.306;2023-02-13T04:41:43;5.00;99.90
16253;DHT22;8234;41.480;2.306;2023-02-13T04:51:47;4.80;99.90
16253;DHT22;8234;41.480;2.306;2023-02-13T05:01:52;5.00;99.90
16253;DHT22;8234;41.480;2.306;2023-02-13T05:11:56;5.20;99.90
16253;DHT22;8234;41.480;2.306;2023-02-13T05:22:01;5.10;99.90
16253;DHT22;8234;41.480;2.306;2023-02-13T05:32:22;5.10;99.90
16253;DHT22;8234;41.480;2.306;2023-02-13T05:42:27;4.80;99.90
16253;DHT22;8234;41.480;2.306;2023-02-13T05:52:31;4.80;99.90
16253;DHT22;8234;41.480;2.306;2023-02-13T06:02:36;4.70;99.90
16253;DHT22;8234;41.480;2.306;2023-02-13T06:12:41;4.60;99.90
16253;DHT22;8234;41.480;2.306;2023-02-13T06:22:48;4.80;99.90
16253;DHT22;8234;41.480;2.306;2023-02-13T06:32:52;4.50;99.90
16253;DHT22;8234;41.480;2.306;2023-02-13T06:42:58;5.00;99.90
16253;DHT22;8234;41.480;2.306;2023-02-13T06:53:02;5.10;99.90
16253;DHT22;8234;41.480;2.306;2023-02-13T07:03:07;4.70;99.90
16253;DHT22;8234;41.480;2.306;2023-02-13T07:13:12;5.00;99.90
16253;DHT22;8234;41.480;2.306;2023-02-13T07:23:17;4.90;99.90
16253;DHT22;8234;41.480;2.306;2023-02-13T07:33:21;5.40;99.90
16253;DHT22;8234;41.480;2.306;2023-02-13T07:43:27;5.50;99.90
16253;DHT22;8234;41.480;2.306;2023-02-13T07:53:32;6.00;99.90
16253;DHT22;8234;41.480;2.306;2023-02-13T08:03:37;6.60;99.90
16253;DHT22;8234;41.480;2.306;2023-02-13T08:13:42;6.90;99.90
16253;DHT22;8234;41.480;2.306;2023-02-13T08:23:47;7.50;99.90
16253;DHT22;8234;41.480;2.306;2023-02-13T08:33:54;8.00;99.90
16253;DHT22;8234;41.480;2.306;2023-02-13T08:43:59;8.30;99.90
16253;DHT22;8234;41.480;2.306;2023-02-13T08:54:03;9.10;99.90
16253;DHT22;8234;41.480;2.306;2023-02-13T09:04:08;9.40;99.90
16253;DHT22;8234;41.480;2.306;2023-02-13T09:14:12;9.90;99.90
16253;DHT22;8234;41.480;2.306;2023-02-13T09:24:17;10.00;99.90
16253;DHT22;8234;41.480;2.306;2023-02-13T09:34:21;10.40;99.90
16253;DHT22;8234;41.480;2.306;2023-02-13T09:44:30;11.00;99.90
16253;DHT22;8234;41.480;2.306;2023-02-13T09:54:38;11.50;99.90
16253;DHT22;8234;41.480;2.306;2023-02-13T10:04:48;11.70;99.90
16253;DHT22;8234;41.480;2.306;2023-02-13T10:15:05;11.70;99.90
16253;DHT22;8234;41.480;2.306;2023-02-13T10:25:16;12.10;99.90
16253;DHT22;8234;41.480;2.306;2023-02-13T10:35:28;12.40;99.90
16253;DHT22;8234;41.480;2.306;2023-02-13T10:45:46;12.70;99.90
16253;DHT22;8234;41.480;2.306;2023-02-13T10:56:07;13.10;99.90
16253;DHT22;8234;41.480;2.306;2023-02-13T11:06:14;13.60;99.90
16253;DHT22;8234;41.480;2.306;2023-02-13T11:16:21;14.30;99.90
16253;DHT22;8234;41.480;2.306;2023-02-13T11:26:30;15.30;99.90
16253;DHT22;8234;41.480;2.306;2023-02-13T11:36:35;15.20;99.90
16253;DHT22;8234;41.480;2.306;2023-02-13T11:46:46;15.70;99.90
16253;DHT22;8234;41.480;2.306;2023-02-13T11:56:52;15.70;99.90
16253;DHT22;8234;41.480;2.306;2023-02-13T12:07:24;15.80;99.90
16253;DHT22;8234;41.480;2.306;2023-02-13T12:17:29;16.10;99.90
16253;DHT22;8234;41.480;2.306;2023-02-13T12:27:43;16.10;99.90
16253;DHT22;8234;41.480;2.306;2023-02-13T12:37:56;16.20;99.90
16253;DHT22;8234;41.480;2.306;2023-02-13T12:48:14;16.50;99.90
16253;DHT22;8234;41.480;2.306;2023-02-13T12:58:38;16.90;99.90
16253;DHT22;8234;41.480;2.306;2023-02-13T13:09:01;16.80;99.90
16253;DHT22;8234;41.480;2.306;2023-02-13T13:19:15;17.40;99.90
16253;DHT22;8234;41.480;2.306;2023-02-13T13:29:24;17.80;99.90
16253;DHT22;8234;41.480;2.306;2023-02-13T13:39:37;17.70;99.90
16253;DHT22;8234;41.480;2.306;2023-02-13T13:49:48;18.60;99.90
16253;DHT22;8234;41.480;2.306;2023-02-13T14:21:21;19.80;99.90
16253;DHT22;8234;41.480;2.306;2023-02-13T14:31:28;19.50;99.90
16253;DHT22;8234;41.480;2.306;2023-02-13T14:41:44;20.00;99.90
16253;DHT22;8234;41.480;2.306;2023-02-13T14:51:50;19.40;99.90
16253;DHT22;8234;41.480;2.306;2023-02-13T15:01:59;19.40;99.90
16253;DHT22;8234;41.480;2.306;2023-02-13T15:12:25;20.20;99.90
16253;DHT22;8234;41.480;2.306;2023-02-13T15:22:32;19.40;99.90
16253;DHT22;8234;41.480;2.306;2023-02-13T15:32:38;19.00;99.90
16253;DHT22;8234;41.480;2.306;2023-02-13T15:42:44;18.80;99.90
16253;DHT22;8234;41.480;2.306;2023-02-13T15:52:48;17.30;99.90
16253;DHT22;8234;41.480;2.306;2023-02-13T16:02:56;17.00;99.90
16253;DHT22;8234;41.480;2.306;2023-02-13T16:13:03;16.60;99.90
16253;DHT22;8234;41.480;2.306;2023-02-13T16:23:16;17.20;99.90
16253;DHT22;8234;41.480;2.306;2023-02-13T16:33:26;15.70;99.90
16253;DHT22;8234;41.480;2.306;2023-02-13T16:43:40;15.30;99.90
16253;DHT22;8234;41.480;2.306;2023-02-13T16:53:44;14.40;99.90
16253;DHT22;8234;41.480;2.306;2023-02-13T17:03:50;13.30;99.90
16253;DHT22;8234;41.480;2.306;2023-02-13T17:13:54;12.70;99.90
16253;DHT22;8234;41.480;2.306;2023-02-13T17:24:00;12.50;99.90
16253;DHT22;8234;41.480;2.306;2023-02-13T17:34:04;12.30;99.90
16253;DHT22;8234;41.480;2.306;2023-02-13T17:44:11;12.20;99.90
16253;DHT22;8234;41.480;2.306;2023-02-13T17:54:15;12.00;99.90
16253;DHT22;8234;41.480;2.306;2023-02-13T18:04:20;12.00;99.90
16253;DHT22;8234;41.480;2.306;2023-02-13T18:14:27;11.80;99.90
16253;DHT22;8234;41.480;2.306;2023-02-13T18:24:35;11.70;99.90
16253;DHT22;8234;41.480;2.306;2023-02-13T18:34:39;11.60;99.90
16253;DHT22;8234;41.480;2.306;2023-02-13T18:44:44;10.30;99.90
16253;DHT22;8234;41.480;2.306;2023-02-13T18:54:47;9.60;99.90
16253;DHT22;8234;41.480;2.306;2023-02-13T19:04:54;9.30;99.90
16253;DHT22;8234;41.480;2.306;2023-02-13T19:14:57;9.00;99.90
16253;DHT22;8234;41.480;2.306;2023-02-13T19:25:03;8.80;99.90
16253;DHT22;8234;41.480;2.306;2023-02-13T19:35:07;8.50;99.90
16253;DHT22;8234;41.480;2.306;2023-02-13T19:45:12;8.50;99.90
16253;DHT22;8234;41.480;2.306;2023-02-13T19:55:16;8.50;99.90
16253;DHT22;8234;41.480;2.306;2023-02-13T20:05:23;8.10;99.90
16253;DHT22;8234;41.480;2.306;2023-02-13T20:15:27;8.10;99.90
16253;DHT22;8234;41.480;2.306;2023-02-13T20:25:34;8.10;99.90
16253;DHT22;8234;41.480;2.306;2023-02-13T20:35:38;8.10;99.90
16253;DHT22;8234;41.480;2.306;2023-02-13T20:45:43;7.90;99.90
16253;DHT22;8234;41.480;2.306;2023-02-13T20:55:47;7.90;99.90
16253;DHT22;8234;41.480;2.306;2023-02-13T21:05:52;7.60;99.90
16253;DHT22;8234;41.480;2.306;2023-02-13T21:16:03;7.60;99.90
16253;DHT22;8234;41.480;2.306;2023-02-13T21:26:09;7.40;99.90
16253;DHT22;8234;41.480;2.306;2023-02-13T21:36:14;7.30;99.90
16253;DHT22;8234;41.480;2.306;2023-02-13T21:46:20;7.30;99.90
16253;DHT22;8234;41.480;2.306;2023-02-13T21:56:26;7.00;99.90
16253;DHT22;8234;41.480;2.306;2023-02-13T22:06:34;7.00;99.90
16253;DHT22;8234;41.480;2.306;2023-02-13T22:16:38;6.80;99.90
16253;DHT22;8234;41.480;2.306;2023-02-13T22:26:45;6.90;99.90
16253;DHT22;8234;41.480;2.306;2023-02-13T22:36:49;6.70;99.90
16253;DHT22;8234;41.480;2.306;2023-02-13T22:46:54;6.40;99.90
16253;DHT22;8234;41.480;2.306;2023-02-13T22:56:57;6.60;99.90
16253;DHT22;8234;41.480;2.306;2023-02-13T23:07:03;6.50;99.90
16253;DHT22;8234;41.480;2.306;2023-02-13T23:17:06;6.60;99.90
16253;DHT22;8234;41.480;2.306;2023-02-13T23:27:29;6.80;99.90
16253;DHT22;8234;41.480;2.306;2023-02-13T23:37:32;6.70;99.90
16253;DHT22;8234;41.480;2.306;2023-02-13T23:47:38;6.90;99.90
16253;DHT22;8234;41.480;2.306;2023-02-13T23:57:42;7.00;99.90
